Time;durP1;ratioP1;P1;durP2;ratioP2;P2;SDS_P1;SDS_P2;PMS_P1;PMS_P2;Temp;Humidity;BMP_temperature;BMP_pressure;BME280_temperature;BME280_humidity;BME280_pressure;Samples;Min_cycle;Max_cycle;Signal;HPM_P1;HPM_P2
2021/10/01 00:02:06;;;;;;;2.50;2.40;;;;;;;5.40;100.00;98901.00;4997500;28;20225;-70
2021/10/01 00:04:34;;;;;;;2.63;2.47;;;;;;;5.26;100.00;98899.34;4956001;28;20213;-67
2021/10/01 00:07:04;;;;;;;2.50;2.30;;;;;;;5.27;100.00;98896.59;4995286;28;20212;-69
2021/10/01 00:09:32;;;;;;;2.30;2.20;;;;;;;5.16;100.00;98894.75;4993815;28;20216;-67
2021/10/01 00:12:00;;;;;;;3.30;2.40;;;;;;;5.19;100.00;98894.53;4979523;28;20629;-69
2021/10/01 00:14:28;;;;;;;3.47;3.27;;;;;;;5.13;100.00;98901.97;4964078;28;23190;-68
2021/10/01 00:16:57;;;;;;;3.37;2.50;;;;;;;5.14;100.00;98901.03;4996311;28;20232;-69
2021/10/01 00:19:25;;;;;;;2.57;2.47;;;;;;;5.13;100.00;98894.09;4959008;28;20221;-67
2021/10/01 00:21:53;;;;;;;2.63;2.43;;;;;;;5.09;100.00;98896.09;4991668;28;20636;-69
2021/10/01 00:24:22;;;;;;;2.60;2.50;;;;;;;5.13;100.00;98894.94;4994217;28;20221;-67
2021/10/01 00:26:50;;;;;;;3.43;2.37;;;;;;;5.14;100.00;98896.63;4995758;28;20750;-67
2021/10/01 00:29:18;;;;;;;3.07;2.40;;;;;;;5.10;100.00;98886.44;4983337;28;20217;-67
2021/10/01 00:31:46;;;;;;;2.50;2.30;;;;;;;5.00;100.00;98883.59;4995485;28;20293;-69
2021/10/01 00:34:14;;;;;;;2.73;2.57;;;;;;;5.03;100.00;98884.25;4961752;28;20237;-67
2021/10/01 00:36:41;;;;;;;2.77;2.57;;;;;;;5.00;100.00;98873.09;4991321;28;20462;-69
2021/10/01 00:39:09;;;;;;;2.73;2.63;;;;;;;4.98;100.00;98869.72;4995457;28;20205;-68
2021/10/01 00:41:39;;;;;;;2.60;2.50;;;;;;;4.93;100.00;98870.06;4993656;28;20609;-68
2021/10/01 00:44:07;;;;;;;2.97;2.77;;;;;;;4.90;100.00;98862.38;4985855;28;20213;-69
2021/10/01 00:46:35;;;;;;;4.63;2.77;;;;;;;4.91;100.00;98872.78;4993411;28;20330;-69
2021/10/01 00:49:03;;;;;;;2.47;2.27;;;;;;;4.90;100.00;98868.47;4957066;28;20220;-69
2021/10/01 00:51:34;;;;;;;2.93;2.17;;;;;;;4.88;100.00;98866.91;4989463;28;20209;-69
2021/10/01 00:54:05;;;;;;;2.97;2.67;;;;;;;4.80;100.00;98864.81;4995781;28;20689;-69
2021/10/01 00:56:33;;;;;;;2.97;2.83;;;;;;;4.78;100.00;98856.22;4989805;28;20228;-69
2021/10/01 00:59:02;;;;;;;2.67;2.53;;;;;;;4.74;100.00;98858.19;4995548;28;20213;-69
2021/10/01 01:01:30;;;;;;;3.00;2.80;;;;;;;4.70;100.00;98853.25;4981533;28;20205;-69
2021/10/01 01:04:01;;;;;;;2.47;2.37;;;;;;;4.64;100.00;98854.53;4993006;28;20308;-69
2021/10/01 01:06:39;;;;;;;3.43;3.13;;;;;;;4.59;100.00;98846.94;4953594;28;20243;-68
2021/10/01 01:09:19;;;;;;;3.13;2.93;;;;;;;4.56;100.00;98851.59;4996247;28;20207;-69
2021/10/01 01:11:59;;;;;;;4.13;2.63;;;;;;;4.59;100.00;98848.75;4994270;28;20201;-67
2021/10/01 01:14:37;;;;;;;2.80;2.70;;;;;;;4.66;100.00;98838.66;4982090;28;20473;-67
2021/10/01 01:17:06;;;;;;;2.87;2.67;;;;;;;4.63;100.00;98834.47;4992452;28;20251;-69
2021/10/01 01:19:52;;;;;;;3.20;2.70;;;;;;;4.64;100.00;98842.22;4957743;28;20871;-69
2021/10/01 01:22:26;;;;;;;2.53;2.33;;;;;;;4.64;100.00;98842.22;4986181;28;20240;-67
2021/10/01 01:25:03;;;;;;;3.03;2.83;;;;;;;4.69;100.00;98833.19;4954652;28;20370;-70
2021/10/01 01:27:44;;;;;;;2.40;2.30;;;;;;;4.72;100.00;98839.06;4988864;28;20589;-67
2021/10/01 01:30:15;;;;;;;4.07;3.70;;;;;;;4.74;100.00;98831.09;4993077;28;20204;-69
2021/10/01 01:32:46;;;;;;;2.97;2.87;;;;;;;4.71;100.00;98824.28;4990692;28;20232;-67
2021/10/01 01:35:18;;;;;;;2.93;2.83;;;;;;;4.74;100.00;98821.44;4993700;28;20442;-67
2021/10/01 01:37:55;;;;;;;2.80;2.30;;;;;;;4.64;100.00;98826.47;4980363;28;20228;-69
2021/10/01 01:40:26;;;;;;;4.80;2.73;;;;;;;4.71;100.00;98821.66;4960801;28;20216;-68
2021/10/01 01:42:56;;;;;;;2.93;2.40;;;;;;;4.68;100.00;98827.09;4987980;28;20829;-70
2021/10/01 01:45:24;;;;;;;2.70;2.47;;;;;;;4.63;100.00;98818.72;4977256;28;20217;-70
2021/10/01 01:47:55;;;;;;;2.63;2.43;;;;;;;4.56;100.00;98823.53;4995262;28;20282;-69
2021/10/01 01:50:23;;;;;;;2.67;2.50;;;;;;;4.55;100.00;98816.59;4989729;28;20849;-69
2021/10/01 01:52:52;;;;;;;2.93;2.73;;;;;;;4.43;100.00;98810.41;4994865;28;20229;-69
2021/10/01 01:55:20;;;;;;;5.03;3.07;;;;;;;4.40;100.00;98815.88;4956507;28;21397;-66
2021/10/01 01:57:51;;;;;;;2.60;2.50;;;;;;;4.41;100.00;98814.09;4990441;28;20326;-67
2021/10/01 02:00:19;;;;;;;2.33;2.17;;;;;;;4.38;100.00;98809.88;4980769;28;20833;-67
2021/10/01 02:02:48;;;;;;;2.57;2.47;;;;;;;4.29;100.00;98808.72;4993649;28;20232;-69
2021/10/01 02:05:19;;;;;;;3.30;3.10;;;;;;;4.29;100.00;98805.28;4989838;28;20571;-67
2021/10/01 02:07:47;;;;;;;2.93;2.73;;;;;;;4.17;100.00;98802.53;4994977;28;20685;-70
2021/10/01 02:10:17;;;;;;;2.43;2.23;;;;;;;4.15;100.00;98796.53;4966334;28;20235;-67
2021/10/01 02:12:48;;;;;;;2.40;2.20;;;;;;;4.18;100.00;98798.13;4988909;28;20235;-70
2021/10/01 02:15:16;;;;;;;2.73;2.57;;;;;;;4.12;100.00;98794.13;4981160;28;20528;-67
2021/10/01 02:17:45;;;;;;;2.77;2.67;;;;;;;4.08;100.00;98797.88;4992987;28;20221;-69
2021/10/01 02:20:14;;;;;;;2.63;2.43;;;;;;;4.07;100.00;98798.84;4991218;28;20205;-67
2021/10/01 02:22:44;;;;;;;2.27;2.17;;;;;;;4.08;100.00;98794.44;4992256;28;20757;-68
2021/10/01 02:27:56;;;;;;;2.80;2.60;;;;;;;4.21;100.00;98792.66;4991018;28;20194;-70
2021/10/01 02:30:25;;;;;;;2.77;2.57;;;;;;;4.18;100.00;98788.47;4979098;28;20752;-69
2021/10/01 02:32:56;;;;;;;2.33;2.13;;;;;;;4.11;100.00;98781.13;4989451;28;20224;-69
2021/10/01 02:35:24;;;;;;;2.87;2.70;;;;;;;4.02;100.00;98778.19;4989528;28;20386;-69
2021/10/01 02:37:53;;;;;;;3.43;2.57;;;;;;;4.04;100.00;98778.06;4992386;28;20220;-69
2021/10/01 02:40:22;;;;;;;2.53;2.40;;;;;;;3.98;100.00;98774.09;4959833;28;20213;-68
2021/10/01 02:42:50;;;;;;;2.83;2.53;;;;;;;4.00;100.00;98779.22;4988736;28;20229;-69
2021/10/01 02:45:18;;;;;;;2.33;2.23;;;;;;;3.97;100.00;98772.38;4981555;28;20214;-67
2021/10/01 02:47:47;;;;;;;2.70;2.47;;;;;;;3.87;100.00;98779.19;4993999;28;20208;-69
2021/10/01 02:50:17;;;;;;;2.87;2.50;;;;;;;3.79;100.00;98781.47;4990665;28;20212;-67
2021/10/01 02:52:49;;;;;;;2.47;2.37;;;;;;;3.79;100.00;98781.47;4978455;28;20233;-69
2021/10/01 02:55:21;;;;;;;3.10;2.50;;;;;;;3.69;100.00;98778.63;4990437;28;20208;-70
2021/10/01 02:57:53;;;;;;;2.80;2.60;;;;;;;3.72;100.00;98778.41;4955128;28;20325;-68
2021/10/01 03:00:21;;;;;;;2.50;2.30;;;;;;;3.65;100.00;98787.63;4991222;28;20322;-70
2021/10/01 03:02:50;;;;;;;2.80;2.70;;;;;;;3.64;100.00;98776.31;4984256;28;20251;-68
2021/10/01 03:05:20;;;;;;;2.70;2.50;;;;;;;3.67;100.00;98776.09;4979820;28;20235;-70
2021/10/01 03:07:48;;;;;;;2.47;2.33;;;;;;;3.65;100.00;98779.75;4995741;28;20208;-68
2021/10/01 03:10:18;;;;;;;2.87;2.67;;;;;;;3.62;100.00;98765.09;4995357;28;20316;-70
2021/10/01 03:12:46;;;;;;;2.07;1.97;;;;;;;3.56;100.00;98757.59;4960284;28;20267;-69
2021/10/01 03:15:14;;;;;;;3.30;2.60;;;;;;;3.59;100.00;98763.50;4986890;28;20204;-70
2021/10/01 03:17:44;;;;;;;2.67;2.47;;;;;;;3.60;100.00;98753.88;4980807;28;20226;-70
2021/10/01 03:20:12;;;;;;;2.60;2.40;;;;;;;3.56;100.00;98762.84;4991890;28;20197;-70
2021/10/01 03:22:41;;;;;;;2.20;2.10;;;;;;;3.51;100.00;98755.31;4996773;28;20290;-69
2021/10/01 03:25:11;;;;;;;3.53;2.53;;;;;;;3.48;100.00;98752.88;4991917;28;20419;-70
2021/10/01 03:27:41;;;;;;;2.70;2.60;;;;;;;3.44;100.00;98752.22;4966158;28;20212;-70
2021/10/01 03:30:10;;;;;;;2.50;2.30;;;;;;;3.43;100.00;98749.72;4995318;28;20344;-70
2021/10/01 03:32:39;;;;;;;3.03;2.83;;;;;;;3.40;100.00;98749.91;4957755;28;20532;-66
2021/10/01 03:35:08;;;;;;;2.43;2.33;;;;;;;3.42;100.00;98748.06;4963552;28;20377;-68
2021/10/01 03:37:36;;;;;;;2.60;2.20;;;;;;;3.45;100.00;98740.00;4975849;28;20218;-67
2021/10/01 03:40:08;;;;;;;2.70;2.50;;;;;;;3.40;100.00;98736.78;4954660;28;20214;-68
2021/10/01 03:42:37;;;;;;;2.23;2.13;;;;;;;3.36;100.00;98743.19;4958507;28;20469;-67
2021/10/01 03:45:09;;;;;;;2.30;2.00;;;;;;;3.33;100.00;98744.25;4948570;28;20206;-66
2021/10/01 03:47:37;;;;;;;2.70;2.50;;;;;;;3.27;100.00;98744.63;4940900;28;20210;-67
2021/10/01 03:50:06;;;;;;;2.67;2.47;;;;;;;3.23;100.00;98733.50;4969992;28;20389;-66
2021/10/01 03:52:34;;;;;;;2.53;2.43;;;;;;;3.27;100.00;98742.03;4971112;28;20234;-68
2021/10/01 03:55:05;;;;;;;2.87;2.50;;;;;;;3.33;100.00;98736.38;4955382;28;20686;-67
2021/10/01 03:57:34;;;;;;;2.60;2.40;;;;;;;3.27;100.00;98728.91;4975539;28;20625;-68
2021/10/01 04:00:05;;;;;;;2.80;2.70;;;;;;;3.24;100.00;98739.59;4974978;28;20221;-67
2021/10/01 04:02:34;;;;;;;3.50;2.93;;;;;;;3.28;100.00;98731.44;4924027;28;20238;-66
2021/10/01 04:05:02;;;;;;;3.73;2.73;;;;;;;3.30;100.00;98733.97;4969581;28;20210;-65
2021/10/01 04:07:30;;;;;;;2.70;2.50;;;;;;;3.19;100.00;98732.03;4975507;28;20585;-67
2021/10/01 04:09:58;;;;;;;2.53;2.43;;;;;;;3.13;100.00;98735.06;4975880;28;20210;-66
2021/10/01 04:12:27;;;;;;;2.80;2.60;;;;;;;3.09;100.00;98730.94;4957866;28;20547;-69
2021/10/01 04:14:55;;;;;;;2.90;2.60;;;;;;;3.07;100.00;98724.97;4971474;28;20213;-66
2021/10/01 04:17:23;;;;;;;2.87;2.73;;;;;;;3.07;100.00;98728.41;4931573;28;20297;-68
2021/10/01 04:19:52;;;;;;;3.00;2.80;;;;;;;3.04;100.00;98718.13;4974560;28;20389;-66
2021/10/01 04:22:20;;;;;;;3.03;2.60;;;;;;;3.06;100.00;98721.50;4973523;28;20444;-67
2021/10/01 04:24:48;;;;;;;2.87;2.70;;;;;;;3.09;100.00;98716.06;4977114;28;20214;-68
2021/10/01 04:27:16;;;;;;;3.07;2.50;;;;;;;3.10;100.00;98709.88;4961660;28;20329;-67
2021/10/01 04:29:44;;;;;;;2.80;2.60;;;;;;;3.05;100.00;98717.19;4976719;28;20696;-68
2021/10/01 04:32:12;;;;;;;2.67;2.57;;;;;;;3.07;100.00;98711.88;4938568;28;20680;-68
2021/10/01 04:34:51;;;;;;;2.90;2.70;;;;;;;3.02;100.00;98706.91;4971928;28;20201;-68
2021/10/01 04:37:20;;;;;;;2.73;2.63;;;;;;;2.97;100.00;98712.44;4972527;28;20459;-66
2021/10/01 04:39:48;;;;;;;2.57;2.47;;;;;;;2.98;100.00;98708.88;4976565;28;20246;-67
2021/10/01 04:42:16;;;;;;;2.80;2.70;;;;;;;2.92;100.00;98724.16;4960661;28;20233;-69
2021/10/01 04:44:44;;;;;;;2.90;2.70;;;;;;;2.91;100.00;98718.06;4974693;28;20213;-69
2021/10/01 04:47:12;;;;;;;2.80;2.53;;;;;;;2.91;100.00;98718.06;4937113;28;21276;-67
2021/10/01 04:49:40;;;;;;;3.73;2.93;;;;;;;2.87;100.00;98716.59;4974036;28;20202;-68
2021/10/01 04:52:08;;;;;;;2.90;2.70;;;;;;;2.89;100.00;98722.56;4965382;28;21086;-67
2021/10/01 04:54:38;;;;;;;2.87;2.77;;;;;;;2.88;100.00;98719.13;4966612;28;20308;-70
2021/10/01 04:57:07;;;;;;;3.10;3.00;;;;;;;2.91;100.00;98722.50;4956599;28;20202;-69
2021/10/01 04:59:35;;;;;;;3.07;2.87;;;;;;;2.86;100.00;98726.25;4961082;28;20222;-69
2021/10/01 05:02:04;;;;;;;3.40;3.10;;;;;;;2.80;100.00;98725.78;4968876;28;20634;-67
2021/10/01 05:04:32;;;;;;;2.80;2.60;;;;;;;2.93;100.00;98718.81;4939192;28;20658;-70
2021/10/01 05:07:00;;;;;;;2.87;2.77;;;;;;;2.84;100.00;98727.25;4970853;28;20220;-68
2021/10/01 05:09:28;;;;;;;2.90;2.80;;;;;;;2.78;100.00;98725.84;4972108;28;20197;-70
2021/10/01 05:11:57;;;;;;;5.00;3.53;;;;;;;2.89;100.00;98730.44;4967936;28;20433;-69
2021/10/01 05:14:25;;;;;;;2.97;2.53;;;;;;;3.08;100.00;98724.84;4961494;28;20220;-71
2021/10/01 05:16:53;;;;;;;3.13;2.97;;;;;;;3.07;100.00;98725.78;4970808;28;20802;-70
2021/10/01 05:19:21;;;;;;;3.93;3.47;;;;;;;3.07;100.00;98717.94;4942095;28;20263;-70
2021/10/01 05:21:49;;;;;;;3.30;3.10;;;;;;;3.02;100.00;98715.59;4970245;28;20209;-67
2021/10/01 05:24:17;;;;;;;8.40;3.40;;;;;;;3.11;100.00;98715.97;4974300;28;20209;-69
2021/10/01 05:26:45;;;;;;;3.73;3.40;;;;;;;3.04;100.00;98720.75;4971845;28;20206;-66
2021/10/01 05:29:14;;;;;;;3.60;3.03;;;;;;;3.09;100.00;98723.09;4963287;28;20209;-70
2021/10/01 05:31:47;;;;;;;4.23;3.83;;;;;;;3.22;100.00;98720.50;4971823;28;20275;-70
2021/10/01 05:34:16;;;;;;;5.27;3.73;;;;;;;3.23;100.00;98727.44;4937336;28;20225;-71
2021/10/01 05:36:45;;;;;;;7.00;3.57;;;;;;;3.24;100.00;98726.50;4957572;28;20290;-70
2021/10/01 05:39:12;;;;;;;3.73;3.43;;;;;;;3.56;100.00;98731.41;4935182;28;20221;-70
2021/10/01 05:41:40;;;;;;;7.97;4.10;;;;;;;3.76;100.00;98719.59;4976168;28;20210;-70
2021/10/01 05:44:09;;;;;;;6.30;3.63;;;;;;;3.65;100.00;98717.69;4972635;28;20289;-69
2021/10/01 05:46:42;;;;;;;5.73;3.77;;;;;;;3.68;100.00;98727.13;4976231;28;20485;-69
2021/10/01 05:49:13;;;;;;;4.73;3.43;;;;;;;3.83;100.00;98730.50;4961462;28;20209;-69
2021/10/01 05:51:47;;;;;;;10.43;4.43;;;;;;;3.78;100.00;98724.75;4975605;28;20275;-69
2021/10/01 05:54:21;;;;;;;8.47;4.10;;;;;;;3.82;100.00;98727.06;4944141;28;20205;-70
2021/10/01 05:56:51;;;;;;;4.17;3.53;;;;;;;3.87;100.00;98722.34;4975373;28;20212;-69
2021/10/01 05:59:20;;;;;;;5.13;3.97;;;;;;;4.04;100.00;98726.44;4973467;28;20228;-68
2021/10/01 06:01:50;;;;;;;4.07;3.70;;;;;;;4.04;100.00;98725.59;4976504;28;20240;-70
2021/10/01 06:04:21;;;;;;;4.57;4.20;;;;;;;4.11;100.00;98728.66;4967058;28;20487;-69
2021/10/01 06:06:49;;;;;;;4.17;3.47;;;;;;;4.18;100.00;98727.28;4971209;28;20703;-68
2021/10/01 06:09:19;;;;;;;3.73;3.43;;;;;;;4.49;100.00;98725.97;4943212;28;20229;-68
2021/10/01 06:11:47;;;;;;;4.47;3.93;;;;;;;4.49;100.00;98728.59;4974453;28;20269;-69
2021/10/01 06:14:20;;;;;;;4.10;3.67;;;;;;;4.52;100.00;98727.56;4955256;28;20951;-68
2021/10/01 06:16:50;;;;;;;3.70;3.50;;;;;;;4.44;100.00;98727.28;4972272;28;20218;-68
2021/10/01 06:19:18;;;;;;;3.63;3.43;;;;;;;4.53;100.00;98729.25;4968173;28;20424;-68
2021/10/01 06:21:47;;;;;;;5.03;3.73;;;;;;;4.61;100.00;98716.41;4972587;28;20204;-67
2021/10/01 06:24:15;;;;;;;3.47;3.17;;;;;;;4.78;100.00;98719.66;4938701;28;20210;-69
2021/10/01 06:26:43;;;;;;;5.47;3.50;;;;;;;5.00;100.00;98716.31;4974226;28;20507;-69
2021/10/01 06:29:11;;;;;;;3.40;3.20;;;;;;;4.94;100.00;98714.13;4972049;28;20213;-68
2021/10/01 06:31:39;;;;;;;3.67;3.47;;;;;;;4.99;100.00;98713.78;4975385;28;20220;-69
2021/10/01 06:34:08;;;;;;;3.30;3.10;;;;;;;5.02;100.00;98716.19;4970931;28;20206;-66
2021/10/01 06:36:36;;;;;;;3.57;3.27;;;;;;;5.08;100.00;98713.13;4972156;28;20558;-70
2021/10/01 06:39:05;;;;;;;3.40;3.20;;;;;;;5.27;100.00;98710.00;4936156;28;20214;-68
2021/10/01 06:41:33;;;;;;;3.90;3.60;;;;;;;5.43;100.00;98714.97;4970782;28;20217;-69
2021/10/01 06:44:03;;;;;;;3.53;3.20;;;;;;;5.67;100.00;98705.34;4972007;28;20229;-69
2021/10/01 06:46:38;;;;;;;3.20;3.03;;;;;;;5.74;100.00;98709.22;4974539;28;20194;-68
2021/10/01 07:36:43;;;;;;;3.07;2.83;;;;;;;8.04;100.00;98669.94;4970758;28;20205;-65
2021/10/01 08:18:29;;;;;;;3.50;2.70;;;;;;;10.51;100.00;98642.56;4945052;28;20375;-68
2021/10/01 08:20:58;;;;;;;3.07;2.87;;;;;;;10.53;100.00;98643.25;4976813;28;20233;-70
2021/10/01 08:23:26;;;;;;;2.47;2.37;;;;;;;10.69;100.00;98638.13;4975466;28;20237;-69
2021/10/01 08:25:54;;;;;;;3.33;2.53;;;;;;;10.83;100.00;98630.66;4958687;28;20812;-68
2021/10/01 08:28:27;;;;;;;3.50;2.57;;;;;;;10.84;100.00;98627.84;4978943;28;20209;-69
2021/10/01 08:30:57;;;;;;;2.93;2.60;;;;;;;10.96;100.00;98636.41;4970842;28;20209;-68
2021/10/01 08:33:25;;;;;;;2.70;2.50;;;;;;;11.12;100.00;98629.59;4941598;28;20225;-71
2021/10/01 08:35:53;;;;;;;2.50;2.40;;;;;;;11.23;100.00;98631.19;4969633;28;20206;-68
2021/10/01 08:38:21;;;;;;;2.97;2.77;;;;;;;11.30;100.00;98632.22;4977638;28;20221;-70
2021/10/01 08:40:49;;;;;;;3.47;2.93;;;;;;;11.51;100.00;98625.78;4975045;28;20225;-67
2021/10/01 08:43:17;;;;;;;3.27;2.97;;;;;;;11.60;100.00;98624.03;4977341;28;20701;-70
2021/10/01 08:45:47;;;;;;;4.70;3.20;;;;;;;11.74;100.00;98626.09;4965513;28;20217;-68
2021/10/01 08:48:15;;;;;;;3.63;2.60;;;;;;;11.75;100.00;98630.41;4942099;28;20346;-70
2021/10/01 08:50:43;;;;;;;2.57;2.37;;;;;;;11.83;100.00;98619.84;4974402;28;20560;-69
2021/10/01 08:53:12;;;;;;;3.20;3.00;;;;;;;11.89;100.00;98618.41;4976047;28;20229;-70
2021/10/01 08:55:46;;;;;;;2.80;2.63;;;;;;;12.24;100.00;98615.78;4976337;28;20224;-67
2021/10/01 08:58:14;;;;;;;2.50;2.30;;;;;;;12.35;100.00;98610.19;4976516;28;20700;-69
2021/10/01 09:00:42;;;;;;;2.47;2.27;;;;;;;12.45;100.00;98607.38;4951604;28;20245;-67
2021/10/01 09:03:12;;;;;;;2.43;2.33;;;;;;;12.57;100.00;98608.75;4940073;28;21152;-69
2021/10/01 09:05:40;;;;;;;2.40;2.17;;;;;;;12.70;100.00;98600.31;4969524;28;20622;-67
2021/10/01 09:08:12;;;;;;;3.27;2.10;;;;;;;12.84;100.00;98595.34;4972378;28;20867;-70
2021/10/01 09:10:40;;;;;;;2.10;2.00;;;;;;;13.11;100.00;98594.22;4973113;28;20206;-68
2021/10/01 09:13:09;;;;;;;4.57;2.40;;;;;;;13.16;100.00;98593.72;4976115;28;20465;-66
2021/10/01 09:15:41;;;;;;;1.63;1.53;;;;;;;13.36;100.00;98588.06;4967388;28;20598;-67
2021/10/01 09:18:09;;;;;;;5.10;1.73;;;;;;;13.43;100.00;98594.41;4976239;28;20206;-69
2021/10/01 09:20:39;;;;;;;3.13;1.97;;;;;;;13.30;100.00;98592.25;4926370;28;20229;-70
2021/10/01 09:23:16;;;;;;;2.57;2.00;;;;;;;13.49;100.00;98585.75;4974729;28;20260;-70
2021/10/01 09:25:44;;;;;;;2.47;1.70;;;;;;;13.80;100.00;98590.34;4975894;28;20674;-70
2021/10/01 09:28:13;;;;;;;3.57;1.50;;;;;;;14.04;100.00;98580.63;4971581;28;21730;-67
2021/10/01 09:30:46;;;;;;;3.00;1.43;;;;;;;13.96;100.00;98575.34;4965359;28;20631;-68
2021/10/01 09:33:15;;;;;;;1.90;1.80;;;;;;;14.21;100.00;98569.94;4965583;28;20233;-68
2021/10/01 09:35:45;;;;;;;1.73;1.33;;;;;;;14.19;100.00;98567.41;4942822;28;20235;-68
2021/10/01 09:38:15;;;;;;;2.10;1.47;;;;;;;14.32;100.00;98567.69;4959516;28;20222;-70
2021/10/01 09:40:45;;;;;;;1.37;1.27;;;;;;;14.40;100.00;98563.34;4974134;28;20229;-69
2021/10/01 09:43:27;;;;;;;1.83;1.47;;;;;;;14.60;100.00;98553.88;4962978;28;20233;-68
2021/10/01 09:46:03;;;;;;;2.30;1.30;;;;;;;14.75;100.00;98553.13;4964923;28;20210;-68
2021/10/01 09:48:34;;;;;;;1.20;0.90;;;;;;;14.85;100.00;98548.41;4972254;28;20291;-72
2021/10/01 09:51:12;;;;;;;2.73;1.30;;;;;;;14.68;100.00;98538.81;4941290;28;20214;-70
2021/10/01 09:53:44;;;;;;;1.30;1.30;;;;;;;14.68;100.00;98542.34;4967196;28;20232;-70
2021/10/01 09:56:22;;;;;;;1.30;1.20;;;;;;;14.75;100.00;98537.97;4978383;28;20206;-67
2021/10/01 09:59:07;;;;;;;1.30;1.30;;;;;;;14.92;100.00;98535.16;4941216;28;20205;-70
2021/10/01 10:01:36;;;;;;;1.20;1.20;;;;;;;14.85;100.00;98532.41;4972949;28;20222;-70
2021/10/01 10:04:15;;;;;;;1.20;1.20;;;;;;;15.17;100.00;98524.28;4968825;28;20226;-70
2021/10/01 10:06:46;;;;;;;1.30;1.20;;;;;;;15.02;100.00;98516.25;4974928;28;20213;-68
2021/10/01 10:09:14;;;;;;;1.47;1.37;;;;;;;15.08;100.00;98522.72;4971429;28;20205;-69
2021/10/01 10:11:43;;;;;;;1.63;1.50;;;;;;;15.11;100.00;98515.16;4974814;28;20563;-68
2021/10/01 10:14:12;;;;;;;1.47;1.30;;;;;;;15.30;100.00;98521.81;4937805;28;20213;-69
2021/10/01 10:16:41;;;;;;;1.83;1.30;;;;;;;15.47;100.00;98519.00;4975180;28;20637;-70
2021/10/01 10:19:11;;;;;;;1.80;1.47;;;;;;;15.61;100.00;98512.84;4971257;28;20202;-71
2021/10/01 10:21:39;;;;;;;0.90;0.90;;;;;;;15.77;100.00;98522.50;4972356;28;20268;-67
2021/10/01 10:24:09;;;;;;;1.40;1.40;;;;;;;15.94;100.00;98511.69;4969129;28;20217;-69
2021/10/01 10:26:37;;;;;;;1.30;1.20;;;;;;;16.13;100.00;98514.78;4974052;28;20594;-70
2021/10/01 10:29:08;;;;;;;2.53;1.20;;;;;;;16.34;100.00;98509.47;4936179;28;20216;-71
2021/10/01 10:31:38;;;;;;;1.30;1.20;;;;;;;16.13;100.00;98510.28;4973468;28;20205;-70
2021/10/01 10:34:18;;;;;;;1.70;1.20;;;;;;;16.22;100.00;98508.28;4971424;28;20228;-71
2021/10/01 10:36:48;;;;;;;2.93;1.17;;;;;;;16.49;100.00;98498.75;4975268;28;20205;-69
2021/10/01 10:39:37;;;;;;;1.50;1.40;;;;;;;16.31;100.00;98498.31;4973575;28;21012;-69
2021/10/01 10:42:12;;;;;;;1.20;1.20;;;;;;;16.31;100.00;98484.94;4971140;28;20230;-71
2021/10/01 10:44:42;;;;;;;1.97;1.13;;;;;;;16.28;100.00;98483.47;4942225;28;20213;-71
2021/10/01 10:47:11;;;;;;;1.77;1.20;;;;;;;16.24;100.00;98481.38;4968934;28;20201;-69
2021/10/01 10:49:42;;;;;;;1.23;1.13;;;;;;;16.36;100.00;98482.53;4976437;28;20615;-68
2021/10/01 10:52:13;;;;;;;1.10;1.10;;;;;;;16.46;100.00;98472.34;4973661;28;20243;-73
2021/10/01 10:54:44;;;;;;;1.00;1.00;;;;;;;16.75;100.00;98473.25;4976350;28;20210;-69
2021/10/01 10:57:28;;;;;;;3.00;1.70;;;;;;;16.58;100.00;98470.00;4973262;28;20209;-68
2021/10/01 10:59:59;;;;;;;1.77;1.67;;;;;;;16.47;100.00;98463.31;4961007;28;20209;-70
2021/10/01 11:02:30;;;;;;;1.20;1.10;;;;;;;16.62;100.00;98470.44;4960528;28;20233;-70
2021/10/01 11:05:20;;;;;;;1.23;1.13;;;;;;;16.72;100.00;98460.25;4970628;28;20264;-71
2021/10/01 11:07:50;;;;;;;4.23;1.77;;;;;;;16.88;100.00;98459.16;4975052;28;20221;-70
2021/10/01 11:10:37;;;;;;;1.10;1.10;;;;;;;17.28;93.96;98452.47;4969883;28;20206;-69
2021/10/01 11:13:27;;;;;;;1.63;0.90;;;;;;;17.33;100.00;98445.50;4972359;28;20228;-70
2021/10/01 11:16:18;;;;;;;1.10;0.97;;;;;;;17.28;98.30;98445.25;4935784;28;20344;-72
2021/10/01 11:19:01;;;;;;;0.97;0.97;;;;;;;17.43;92.76;98452.34;4950231;28;20567;-72
2021/10/01 11:21:32;;;;;;;1.80;1.27;;;;;;;17.56;91.75;98444.38;4965627;28;20643;-72
2021/10/01 11:24:01;;;;;;;1.47;1.00;;;;;;;17.69;89.94;98442.81;4969711;28;20300;-70
2021/10/01 11:26:33;;;;;;;1.53;1.30;;;;;;;17.62;93.50;98437.41;4956461;28;20296;-68
2021/10/01 11:29:02;;;;;;;1.00;1.00;;;;;;;17.81;86.52;98438.53;4964990;28;20198;-69
2021/10/01 11:31:38;;;;;;;0.93;0.90;;;;;;;17.84;88.34;98435.44;4938511;28;20214;-70
2021/10/01 11:34:07;;;;;;;2.33;1.20;;;;;;;17.83;86.63;98438.34;4965218;28;20225;-71
2021/10/01 11:36:37;;;;;;;1.20;1.20;;;;;;;18.02;89.33;98420.69;4965952;28;20532;-68
2021/10/01 11:39:07;;;;;;;1.90;1.00;;;;;;;18.39;82.25;98420.34;4964869;28;20335;-69
2021/10/01 11:41:41;;;;;;;2.90;1.40;;;;;;;18.49;83.33;98410.03;4963920;28;20202;-68
2021/10/01 11:44:09;;;;;;;2.80;1.27;;;;;;;18.71;80.31;98409.84;4959764;28;20230;-69
2021/10/01 11:46:39;;;;;;;1.30;1.20;;;;;;;19.23;71.63;98408.16;4944166;28;20220;-70
2021/10/01 11:49:15;;;;;;;1.13;1.03;;;;;;;19.33;72.33;98399.66;4959506;28;20212;-72
2021/10/01 11:51:58;;;;;;;0.90;0.90;;;;;;;19.54;73.46;98395.06;4977216;28;20673;-69
2021/10/01 11:54:26;;;;;;;1.50;1.40;;;;;;;19.24;74.87;98382.94;4964530;28;21092;-70
2021/10/01 11:56:57;;;;;;;3.60;1.57;;;;;;;19.25;73.46;98375.72;4976350;28;20213;-71
2021/10/01 11:59:26;;;;;;;2.10;1.13;;;;;;;19.51;70.25;98379.38;4975780;28;20296;-72
2021/10/01 12:01:58;;;;;;;1.00;1.00;;;;;;;19.57;71.02;98377.66;4944336;28;20315;-69
2021/10/01 12:04:31;;;;;;;1.37;0.87;;;;;;;19.73;73.39;98377.19;4969119;28;20229;-73
2021/10/01 12:07:04;;;;;;;1.67;1.50;;;;;;;20.10;68.03;98373.91;4944002;28;20214;-72
2021/10/01 12:09:32;;;;;;;2.00;0.80;;;;;;;20.28;65.83;98367.78;4944687;28;20677;-70
2021/10/01 12:12:08;;;;;;;2.30;1.10;;;;;;;20.16;64.95;98361.47;4954512;28;20225;-72
2021/10/01 12:14:36;;;;;;;1.00;1.00;;;;;;;20.66;62.49;98357.97;4971386;28;20790;-71
2021/10/01 12:17:06;;;;;;;1.10;1.10;;;;;;;20.86;57.57;98357.00;4953988;28;20824;-72
2021/10/01 12:19:35;;;;;;;1.63;1.13;;;;;;;21.39;59.76;98356.41;4975196;28;20263;-69
2021/10/01 12:22:05;;;;;;;1.03;0.90;;;;;;;21.30;56.96;98349.69;4939773;28;20224;-71
2021/10/01 12:24:44;;;;;;;1.27;0.90;;;;;;;21.57;53.34;98351.22;4972239;28;20709;-70
2021/10/01 12:27:14;;;;;;;1.07;0.83;;;;;;;21.66;51.67;98342.63;4961285;28;20609;-70
2021/10/01 12:29:44;;;;;;;3.03;1.00;;;;;;;22.35;49.89;98335.22;4968002;28;20210;-72
2021/10/01 12:32:12;;;;;;;0.77;0.77;;;;;;;22.39;50.68;98331.00;4962019;28;20225;-72
2021/10/01 12:34:43;;;;;;;0.93;0.93;;;;;;;22.14;49.58;98328.50;4975578;28;20208;-72
2021/10/01 12:37:13;;;;;;;2.17;1.10;;;;;;;21.95;52.90;98323.16;4941051;28;20205;-72
2021/10/01 12:39:43;;;;;;;2.90;1.27;;;;;;;21.94;50.56;98324.19;4974776;28;20685;-72
2021/10/01 12:42:19;;;;;;;3.40;1.30;;;;;;;21.99;51.78;98324.34;4972179;28;20463;-72
2021/10/01 12:44:59;;;;;;;3.13;1.10;;;;;;;22.05;51.46;98315.34;4952416;28;20217;-71
2021/10/01 12:47:27;;;;;;;1.87;0.93;;;;;;;22.13;50.03;98319.56;4963198;28;20381;-71
2021/10/01 12:49:59;;;;;;;0.97;0.93;;;;;;;22.46;49.11;98310.13;4955625;28;20410;-71
2021/10/01 12:52:28;;;;;;;0.80;0.80;;;;;;;22.37;50.64;98306.09;4939611;28;20442;-71
2021/10/01 12:54:59;;;;;;;0.83;0.83;;;;;;;23.01;48.31;98300.00;4973151;28;20645;-71
2021/10/01 12:57:35;;;;;;;1.37;1.10;;;;;;;22.81;48.79;98303.91;4973585;28;20229;-71
2021/10/01 13:00:16;;;;;;;0.93;0.93;;;;;;;23.06;48.40;98297.41;4960418;28;20216;-71
2021/10/01 13:02:45;;;;;;;1.00;1.00;;;;;;;22.77;45.77;98302.72;4961095;28;20240;-71
2021/10/01 13:05:15;;;;;;;0.80;0.80;;;;;;;23.33;43.65;98286.09;4949548;28;20990;-71
2021/10/01 13:07:45;;;;;;;0.60;0.60;;;;;;;23.50;42.91;98288.03;4941877;28;20214;-71
2021/10/01 13:10:27;;;;;;;1.03;0.70;;;;;;;23.72;42.08;98288.16;4971097;28;20206;-71
2021/10/01 13:13:01;;;;;;;0.60;0.60;;;;;;;23.66;42.74;98276.41;4970477;28;20240;-70
2021/10/01 13:15:44;;;;;;;0.60;0.60;;;;;;;23.03;44.29;98270.03;4957158;28;20209;-71
2021/10/01 13:18:17;;;;;;;0.77;0.77;;;;;;;23.32;44.42;98265.53;4957163;28;20222;-72